Aeroboteco Virtual Airlines! Uma nuvem a frente.



 INFORMAÇÕES METEOROLÓGICAS
METAR FOR SBSR
ADDS - METARS form results

(1558 UTC 07 August 2022)
Data provider http://aviationweather.gov/metar/data/
 
METAR text: SBSR 071500Z 35008KT 9999 FEW040 SCT070 31/04 Q1014
Conditions at: SBSR (SAO JOSE PRETO , BR) observed 1500 UTC 07 August 2022
Temperature: 31.0°C (88°F)
Dewpoint: 4.0°C (39°F) [RH = 18%]
Pressure (altimeter): 29.94 inches Hg (1014.0 mb)
Winds: from the N (350 degrees) at 9 MPH (8 knots; 4.1 m/s)
Visibility: 6 or more miles (10+ km)
Ceiling: at least 12,000 feet AGL
Clouds: few clouds at 4000 feet AGL
scattered clouds at 7000 feet AGL
Weather: no significant weather observed at this time

 MAPA DO AEROPORTO

 INFORMAÇÕES DA PISTA
Pista 7 Tamanho da pista 5381 ft Largura da pista 115 ft
Elevação da pista 0 ft Ranhura da pista 0 ft Proa da pista 0
Pista 25 Tamanho da pista 5381 ft Largura da pista 115 ft
Elevação da pista 0 ft Ranhura da pista 0 ft Proa da pista 0

 FREQUÊNCIAS DO AEROPORTO
Tipo AFIS Nome RDO Frequência 130.85 MHZ

 AUXÍLIOS DE NAVEGAÇÃO PRÓXIMOS AO AEROPORTO
Tipo NDB Nome Rio Preto Frequência 420 KHZ